Time;durP1;ratioP1;P1;durP2;ratioP2;P2;SDS_P1;SDS_P2;PMS_P1;PMS_P2;Temp;Humidity;BMP_temperature;BMP_pressure;BME280_temperature;BME280_humidity;BME280_pressure;Samples;Min_cycle;Max_cycle;Signal;HPM_P1;HPM_P2
2021/12/24 00:02:10;;;;;;;15.05;7.95;;;;;;;4.44;100.00;100061.59;5068192;28;20400;-74
2021/12/24 00:04:35;;;;;;;16.60;7.40;;;;;;;4.54;100.00;100072.91;5080219;28;20048;-74
2021/12/24 00:07:01;;;;;;;17.85;7.00;;;;;;;4.65;100.00;100086.84;5066081;28;20465;-75
2021/12/24 00:09:31;;;;;;;15.05;7.05;;;;;;;4.67;100.00;100077.09;5078904;28;20134;-75
2021/12/24 00:12:00;;;;;;;13.50;7.05;;;;;;;4.63;100.00;100065.25;5080304;28;20086;-74
2021/12/24 00:14:28;;;;;;;10.38;6.68;;;;;;;4.70;100.00;100064.59;5079492;28;20032;-74
2021/12/24 00:16:57;;;;;;;12.70;6.80;;;;;;;4.71;100.00;100068.03;5070387;28;20030;-74
2021/12/24 00:19:38;;;;;;;11.07;6.40;;;;;;;4.61;100.00;100047.06;5083962;28;20103;-74
2021/12/24 00:35:33;;;;;;;14.57;6.78;;;;;;;4.84;100.00;100062.59;5064836;28;20089;-74
2021/12/24 00:38:01;;;;;;;11.00;5.70;;;;;;;4.85;100.00;100066.84;5059648;28;20040;-74
2021/12/24 00:40:27;;;;;;;15.75;7.35;;;;;;;4.86;100.00;100066.72;5078649;28;20021;-75
2021/12/24 00:42:54;;;;;;;12.60;6.43;;;;;;;4.87;100.00;100068.34;5078940;28;20455;-75
2021/12/24 00:45:27;;;;;;;11.85;6.63;;;;;;;4.88;100.00;100070.03;5073122;28;20051;-74
2021/12/24 00:47:53;;;;;;;13.30;6.95;;;;;;;4.87;100.00;100055.28;5070998;28;20399;-74
2021/12/24 00:50:24;;;;;;;13.10;6.22;;;;;;;4.79;100.00;100031.63;5080766;28;20454;-74
2021/12/24 00:52:57;;;;;;;11.82;6.80;;;;;;;4.92;100.00;100060.97;5080589;28;20036;-74
2021/12/24 00:55:26;;;;;;;10.13;6.18;;;;;;;4.92;100.00;100060.97;5078559;28;20036;-74
2021/12/24 00:57:57;;;;;;;10.70;6.28;;;;;;;4.94;100.00;100055.59;5085566;28;20058;-74
2021/12/24 01:00:29;;;;;;;12.05;6.43;;;;;;;4.95;100.00;100052.03;5063053;28;20045;-74
2021/12/24 01:02:56;;;;;;;10.40;5.88;;;;;;;4.94;100.00;100043.34;5076065;28;20553;-74
2021/12/24 01:05:25;;;;;;;15.05;6.82;;;;;;;4.96;100.00;100053.66;5081055;28;20032;-74
2021/12/24 01:07:51;;;;;;;12.23;5.95;;;;;;;4.92;100.00;100036.59;5077668;28;20404;-74
2021/12/24 01:10:20;;;;;;;9.43;5.65;;;;;;;4.93;100.00;100035.63;5057341;28;20040;-74
2021/12/24 01:12:46;;;;;;;11.88;5.10;;;;;;;5.01;100.00;100042.78;5083064;28;20601;-74
2021/12/24 01:15:13;;;;;;;10.27;5.18;;;;;;;5.02;100.00;100044.47;5074591;28;20037;-75
2021/12/24 01:17:47;;;;;;;11.90;5.43;;;;;;;4.97;100.00;100030.97;5064107;28;20036;-75
2021/12/24 01:21:11;;;;;;;9.10;5.05;;;;;;;5.00;100.00;100035.94;5060970;28;20074;-75
2021/12/24 01:25:53;;;;;;;11.27;6.20;;;;;;;5.00;100.00;100035.94;5077680;28;20094;-74
2021/12/24 01:39:51;;;;;;;10.70;4.97;;;;;;;5.02;100.00;100026.16;5011244;28;20068;-75
2021/12/24 01:45:16;;;;;;;8.73;4.85;;;;;;;4.99;100.00;100016.81;4999439;28;20041;-75
2021/12/24 01:47:42;;;;;;;11.63;5.72;;;;;;;5.05;100.00;100028.50;5003446;28;20030;-75
2021/12/24 01:50:08;;;;;;;6.28;4.07;;;;;;;5.03;100.00;100027.81;4988096;28;20061;-75
2021/12/24 01:52:33;;;;;;;11.07;4.90;;;;;;;5.05;100.00;100033.72;5006301;28;20438;-75
2021/12/24 01:54:59;;;;;;;9.75;4.55;;;;;;;5.03;100.00;100020.81;5008845;28;20035;-75
2021/12/24 01:57:25;;;;;;;8.65;4.75;;;;;;;5.04;100.00;100022.44;4987862;28;20077;-74
2021/12/24 01:59:51;;;;;;;8.95;3.45;;;;;;;5.08;100.00;100029.06;5005852;28;20458;-74
2021/12/24 02:02:16;;;;;;;9.57;4.43;;;;;;;5.09;100.00;100020.25;4992098;28;20058;-77
2021/12/24 02:04:42;;;;;;;10.15;4.38;;;;;;;5.13;100.00;100007.72;5008323;28;20061;-78
2021/12/24 02:07:07;;;;;;;7.30;3.50;;;;;;;5.17;100.00;100024.81;4993613;28;20044;-77
2021/12/24 02:09:34;;;;;;;6.82;4.15;;;;;;;5.21;100.00;100020.97;4992367;28;21601;-77
2021/12/24 02:12:00;;;;;;;8.23;4.22;;;;;;;5.25;100.00;100024.97;5080556;28;20044;-77
2021/12/24 02:14:34;;;;;;;9.10;3.67;;;;;;;5.22;100.00;100020.00;5082270;28;20066;-77
2021/12/24 02:30:30;;;;;;;4.93;3.13;;;;;;;5.30;100.00;99986.13;5071067;28;20455;-77
2021/12/24 02:32:56;;;;;;;6.40;3.63;;;;;;;5.38;100.00;99988.09;5070889;28;20044;-77
2021/12/24 02:35:22;;;;;;;6.13;3.17;;;;;;;5.44;100.00;99987.50;5091829;28;20019;-77
2021/12/24 02:37:49;;;;;;;4.43;2.90;;;;;;;5.45;100.00;99983.94;5081764;28;20111;-77
2021/12/24 02:40:15;;;;;;;7.78;3.53;;;;;;;5.48;100.00;99988.06;5081645;28;20025;-78
2021/12/24 02:42:46;;;;;;;5.32;2.97;;;;;;;5.47;100.00;99992.47;5070462;28;20027;-77
2021/12/24 02:45:12;;;;;;;4.88;3.25;;;;;;;5.39;100.00;99974.03;5083054;28;20082;-77
2021/12/24 02:55:16;;;;;;;4.97;2.70;;;;;;;5.50;100.00;99967.81;5082677;28;20046;-77
2021/12/24 02:57:43;;;;;;;5.85;3.28;;;;;;;5.57;100.00;99982.00;5072333;28;20032;-77
2021/12/24 03:00:19;;;;;;;6.57;3.10;;;;;;;5.49;100.00;99963.56;5083979;28;20361;-77
2021/12/24 03:02:47;;;;;;;4.88;2.47;;;;;;;5.60;100.00;99979.13;5080582;28;20033;-77
2021/12/24 03:05:15;;;;;;;4.30;2.70;;;;;;;5.64;100.00;99972.63;5063190;28;20032;-78
2021/12/24 03:07:41;;;;;;;7.18;3.33;;;;;;;5.65;100.00;99966.44;5061124;28;20369;-77
2021/12/24 03:10:12;;;;;;;6.97;3.22;;;;;;;5.64;100.00;99971.78;5082141;28;20107;-77
2021/12/24 03:12:38;;;;;;;4.88;2.78;;;;;;;5.69;100.00;99970.41;5067642;28;20031;-77
2021/12/24 03:15:06;;;;;;;5.85;2.88;;;;;;;5.64;100.00;99950.84;5078414;28;20551;-78
2021/12/24 03:17:32;;;;;;;5.18;3.15;;;;;;;5.68;100.00;99955.69;5088460;28;20058;-78
2021/12/24 03:20:04;;;;;;;6.40;3.58;;;;;;;5.60;100.00;99945.09;5079660;28;20082;-78
2021/12/24 03:25:14;;;;;;;4.63;3.00;;;;;;;5.75;100.00;99964.63;5078186;28;20056;-77
2021/12/24 03:27:40;;;;;;;3.92;2.63;;;;;;;5.80;100.00;99960.78;5081599;28;20178;-77
2021/12/24 03:30:06;;;;;;;6.38;3.15;;;;;;;5.67;100.00;99940.94;5079191;28;20103;-77
2021/12/24 03:32:32;;;;;;;6.72;3.25;;;;;;;5.71;100.00;99941.50;5064516;28;20032;-77
2021/12/24 03:34:57;;;;;;;6.68;3.20;;;;;;;5.81;100.00;99952.75;5080000;28;20070;-77
2021/12/24 03:37:23;;;;;;;5.72;3.45;;;;;;;5.71;100.00;99933.63;5066526;28;20028;-77
2021/12/24 03:39:48;;;;;;;6.50;3.58;;;;;;;5.77;100.00;99939.13;5085429;28;20020;-77
2021/12/24 03:42:14;;;;;;;6.50;3.67;;;;;;;5.75;100.00;99938.44;5084465;28;20120;-77
2021/12/24 03:44:46;;;;;;;7.20;3.63;;;;;;;5.92;100.00;99954.38;5067280;28;20036;-77
2021/12/24 03:47:13;;;;;;;10.70;4.70;;;;;;;5.94;100.00;99962.91;5077128;28;20035;-77
2021/12/24 03:50:05;;;;;;;8.80;3.78;;;;;;;5.95;100.00;99959.38;5081696;28;20125;-77
2021/12/24 03:54:59;;;;;;;8.60;4.15;;;;;;;5.89;100.00;99936.34;5081068;28;20127;-77
2021/12/24 03:57:37;;;;;;;12.77;4.43;;;;;;;5.98;100.00;99962.53;5081773;28;20040;-78
2021/12/24 04:00:32;;;;;;;10.45;4.72;;;;;;;6.00;100.00;99946.69;5086673;28;20024;-77
2021/12/24 04:02:57;;;;;;;11.50;4.88;;;;;;;5.91;100.00;99931.78;5065206;28;20043;-77
2021/12/24 04:05:23;;;;;;;11.48;4.10;;;;;;;5.74;100.00;99902.75;5053318;28;20387;-77
2021/12/24 04:07:48;;;;;;;13.60;5.63;;;;;;;6.02;100.00;99944.75;5076208;28;20024;-77
2021/12/24 04:10:23;;;;;;;12.68;4.70;;;;;;;5.97;100.00;99933.88;5064618;28;20066;-77
2021/12/24 04:12:49;;;;;;;15.40;5.13;;;;;;;6.04;100.00;99950.66;5052740;28;20031;-77
2021/12/24 04:15:14;;;;;;;19.00;4.97;;;;;;;5.78;100.00;99904.13;5086726;28;20433;-77
2021/12/24 04:17:42;;;;;;;16.30;5.22;;;;;;;6.03;100.00;99919.38;5081456;28;20032;-77
2021/12/24 04:25:35;;;;;;;15.50;5.13;;;;;;;5.97;100.00;99920.78;5062738;28;20055;-77
2021/12/24 04:28:01;;;;;;;15.07;5.70;;;;;;;6.10;100.00;99937.00;5063045;28;20036;-77
2021/12/24 04:30:33;;;;;;;12.90;5.55;;;;;;;6.12;100.00;99945.53;5077505;28;20043;-77
2021/12/24 04:33:05;;;;;;;12.93;4.93;;;;;;;6.15;100.00;99934.75;5080614;28;20074;-77
2021/12/24 04:35:39;;;;;;;19.95;5.68;;;;;;;6.18;100.00;99944.97;5066709;28;20119;-77
2021/12/24 04:51:33;;;;;;;11.70;4.68;;;;;;;6.29;100.00;99945.75;4983738;28;20065;-77
2021/12/24 05:04:48;;;;;;;13.15;5.80;;;;;;;6.22;100.00;99908.00;4963465;28;20113;-78
2021/12/24 05:09:57;;;;;;;15.38;6.20;;;;;;;6.39;100.00;99930.81;4991489;28;20387;-77
2021/12/24 05:12:23;;;;;;;18.02;6.05;;;;;;;6.40;100.00;99935.06;4990912;28;20034;-77
2021/12/24 05:14:48;;;;;;;27.65;9.02;;;;;;;6.46;100.00;99931.88;4972205;28;20045;-77
2021/12/24 05:22:30;;;;;;;20.65;8.65;;;;;;;6.45;100.00;99911.06;5005739;28;20054;-77
2021/12/24 05:24:56;;;;;;;17.65;7.63;;;;;;;6.57;100.00;99923.81;5050387;28;20035;-77
2021/12/24 05:27:21;;;;;;;23.38;9.32;;;;;;;6.59;100.00;99921.84;5066875;28;20036;-77
2021/12/24 05:29:47;;;;;;;28.70;10.00;;;;;;;6.62;100.00;99923.38;5070849;28;20040;-77
2021/12/24 05:32:12;;;;;;;29.17;10.65;;;;;;;6.52;100.00;99894.59;5085619;28;20144;-77
2021/12/24 05:34:37;;;;;;;24.50;9.52;;;;;;;6.68;100.00;99916.72;5081891;28;20043;-77
2021/12/24 05:37:03;;;;;;;29.05;10.15;;;;;;;6.53;100.00;99896.25;5074829;28;20047;-77
2021/12/24 05:39:29;;;;;;;29.42;9.73;;;;;;;6.62;100.00;99901.56;5068128;28;20031;-77
2021/12/24 05:41:54;;;;;;;26.65;10.20;;;;;;;6.70;100.00;99914.78;5050955;28;20040;-77
2021/12/24 05:44:20;;;;;;;22.63;8.32;;;;;;;6.63;100.00;99898.00;5083922;28;20472;-77
2021/12/24 05:46:46;;;;;;;26.00;8.70;;;;;;;6.71;100.00;99912.00;5065627;28;20043;-77
2021/12/24 05:49:13;;;;;;;25.08;8.93;;;;;;;6.72;100.00;99916.28;5086041;28;20032;-77
2021/12/24 05:51:38;;;;;;;18.33;8.60;;;;;;;6.67;100.00;99907.22;5093208;28;20127;-77
2021/12/24 05:54:04;;;;;;;22.50;9.70;;;;;;;6.64;100.00;99892.59;5064539;28;20123;-77
2021/12/24 05:56:30;;;;;;;20.10;9.02;;;;;;;6.65;100.00;99893.44;5083054;28;20043;-78
2021/12/24 05:58:55;;;;;;;26.00;10.43;;;;;;;6.81;100.00;99919.81;5080348;28;20435;-77
2021/12/24 06:01:21;;;;;;;24.05;9.48;;;;;;;6.80;100.00;99926.03;5084352;28;20051;-77
2021/12/24 06:03:47;;;;;;;20.02;8.75;;;;;;;6.80;100.00;99923.41;5075126;28;20047;-77
2021/12/24 06:06:13;;;;;;;29.08;10.20;;;;;;;6.69;100.00;99906.09;5085207;28;20055;-77
2021/12/24 06:08:39;;;;;;;28.25;9.75;;;;;;;6.74;100.00;99908.25;5080898;28;20503;-78
2021/12/24 06:11:05;;;;;;;19.88;8.90;;;;;;;6.85;100.00;99928.22;5065808;28;20757;-78
2021/12/24 06:13:31;;;;;;;24.05;9.07;;;;;;;6.87;100.00;99934.94;5087054;28;20479;-77
2021/12/24 06:15:56;;;;;;;21.58;9.63;;;;;;;6.74;100.00;99916.13;5068265;28;20043;-77
2021/12/24 06:20:48;;;;;;;21.88;8.57;;;;;;;6.90;100.00;99939.06;5081359;28;20037;-77
2021/12/24 06:23:14;;;;;;;15.80;6.47;;;;;;;6.70;100.00;99922.63;5082292;28;20118;-77
2021/12/24 06:25:39;;;;;;;14.90;7.80;;;;;;;6.74;100.00;99939.72;5062293;28;20028;-77
2021/12/24 06:28:05;;;;;;;18.20;7.63;;;;;;;6.70;100.00;99951.47;5070976;28;20020;-77
2021/12/24 06:30:31;;;;;;;18.17;7.15;;;;;;;6.67;100.00;99954.41;5086127;28;20032;-78
2021/12/24 06:32:57;;;;;;;13.38;5.85;;;;;;;6.50;100.00;99938.47;5064940;28;20583;-78
2021/12/24 06:35:24;;;;;;;16.42;5.22;;;;;;;6.55;100.00;99966.88;5089695;28;20108;-78
2021/12/24 06:37:51;;;;;;;20.05;7.05;;;;;;;6.51;100.00;99955.88;5065378;28;20115;-77
2021/12/24 06:40:16;;;;;;;14.35;6.00;;;;;;;6.54;100.00;99968.69;5082805;28;20029;-77
2021/12/24 06:42:42;;;;;;;13.02;5.50;;;;;;;6.51;100.00;99965.50;5061808;28;20030;-78
2021/12/24 06:45:08;;;;;;;10.93;5.20;;;;;;;6.49;100.00;99973.53;5060221;28;20036;-78
2021/12/24 06:47:33;;;;;;;15.02;5.68;;;;;;;6.52;100.00;99981.09;5060573;28;20492;-77
2021/12/24 06:49:59;;;;;;;12.05;5.15;;;;;;;6.47;100.00;99975.47;5061685;28;20048;-77
2021/12/24 06:52:24;;;;;;;12.57;4.90;;;;;;;6.49;100.00;99989.25;5089302;28;20388;-77
2021/12/24 06:54:49;;;;;;;12.63;5.07;;;;;;;6.49;100.00;99985.78;5062450;28;20485;-77
2021/12/24 06:57:18;;;;;;;21.15;5.15;;;;;;;6.39;100.00;99962.25;5064606;28;20051;-77
2021/12/24 06:59:43;;;;;;;11.23;4.93;;;;;;;6.47;100.00;99972.84;5051461;28;20024;-77
2021/12/24 07:02:09;;;;;;;10.13;4.85;;;;;;;6.42;100.00;99969.81;5062703;28;20032;-79
2021/12/24 07:04:34;;;;;;;16.85;4.85;;;;;;;6.47;100.00;99985.16;5053268;28;20024;-77
2021/12/24 07:07:00;;;;;;;13.52;4.22;;;;;;;6.47;100.00;99985.97;5067330;28;20419;-77
2021/12/24 07:09:25;;;;;;;9.00;4.72;;;;;;;6.42;100.00;99982.09;5089785;28;20028;-78
2021/12/24 07:11:50;;;;;;;11.40;4.57;;;;;;;6.44;100.00;99994.09;5061469;28;20428;-78
2021/12/24 07:14:16;;;;;;;10.43;4.00;;;;;;;6.43;100.00;99997.69;5063975;28;20470;-78
2021/12/24 07:16:41;;;;;;;7.68;3.30;;;;;;;6.31;100.00;99980.50;5087285;28;20072;-78
2021/12/24 07:19:07;;;;;;;6.78;3.42;;;;;;;6.39;100.00;99986.66;5062957;28;20081;-77
2021/12/24 07:21:35;;;;;;;6.75;3.28;;;;;;;6.41;100.00;99991.78;5081421;28;20036;-77
2021/12/24 07:24:04;;;;;;;6.72;2.90;;;;;;;6.36;100.00;99991.38;5039968;28;20649;-77
2021/12/24 07:26:29;;;;;;;6.93;3.05;;;;;;;6.39;100.00;100009.44;5081094;28;20582;-76
2021/12/24 07:28:54;;;;;;;8.73;2.92;;;;;;;6.39;100.00;100006.81;5078609;28;20036;-77
2021/12/24 07:31:20;;;;;;;7.68;2.88;;;;;;;6.38;100.00;100010.41;5058566;28;20123;-76
2021/12/24 07:33:46;;;;;;;6.25;2.88;;;;;;;6.25;100.00;99995.00;5069102;28;20147;-77
2021/12/24 07:36:11;;;;;;;6.07;3.28;;;;;;;6.32;100.00;100003.13;5030141;28;20496;-77
2021/12/24 07:38:37;;;;;;;7.55;2.97;;;;;;;6.37;100.00;100012.19;5081309;28;20357;-77
2021/12/24 07:41:03;;;;;;;6.38;2.78;;;;;;;6.38;100.00;100013.03;5082380;28;20394;-77
2021/12/24 07:43:29;;;;;;;6.82;2.92;;;;;;;6.24;100.00;99995.16;5080539;28;20032;-77
2021/12/24 07:45:55;;;;;;;6.68;3.30;;;;;;;6.37;100.00;100021.84;5042568;28;20085;-77
2021/12/24 07:48:27;;;;;;;5.80;3.28;;;;;;;6.24;100.00;100005.63;5079887;28;20033;-77
2021/12/24 07:53:19;;;;;;;3.72;1.63;;;;;;;6.29;100.00;100032.22;5079457;28;20071;-77
2021/12/24 07:55:45;;;;;;;2.90;1.70;;;;;;;6.25;100.00;100038.72;5067748;28;20077;-77
2021/12/24 07:58:13;;;;;;;2.75;1.70;;;;;;;6.17;100.00;100032.41;5069533;28;20539;-77
2021/12/24 08:00:40;;;;;;;3.95;2.08;;;;;;;6.01;100.00;100031.31;5078810;28;20016;-77
2021/12/24 08:03:06;;;;;;;3.15;1.90;;;;;;;6.09;100.00;100037.50;5061457;28;20611;-77
2021/12/24 08:05:35;;;;;;;2.78;1.75;;;;;;;5.85;100.00;100010.91;5077984;28;20479;-77
2021/12/24 08:08:01;;;;;;;3.88;2.17;;;;;;;6.07;100.00;100039.44;5061242;28;20028;-77
2021/12/24 08:10:34;;;;;;;3.10;1.90;;;;;;;6.11;100.00;100042.59;5061907;28;20041;-77
2021/12/24 08:13:00;;;;;;;3.80;2.25;;;;;;;6.12;100.00;100037.25;5072361;28;20052;-78
2021/12/24 08:15:25;;;;;;;4.15;2.20;;;;;;;6.13;100.00;100041.50;5087988;28;20032;-77
2021/12/24 08:17:51;;;;;;;4.00;1.85;;;;;;;6.12;100.00;100039.84;5047529;28;20039;-77
2021/12/24 08:20:22;;;;;;;3.38;2.25;;;;;;;6.03;100.00;100026.75;5085631;28;20043;-77
2021/12/24 08:22:49;;;;;;;3.42;2.38;;;;;;;6.09;100.00;100037.50;5068112;28;20055;-77
2021/12/24 08:25:16;;;;;;;2.90;1.88;;;;;;;6.10;100.00;100046.22;5050378;28;20794;-77
2021/12/24 08:27:42;;;;;;;4.07;1.73;;;;;;;6.04;100.00;100054.63;5081058;28;20426;-78
2021/12/24 08:30:08;;;;;;;3.80;2.38;;;;;;;6.07;100.00;100054.34;5081382;28;20024;-78
2021/12/24 08:32:37;;;;;;;3.67;2.22;;;;;;;6.11;100.00;100053.91;5079425;28;20036;-77
2021/12/24 08:35:08;;;;;;;3.65;2.13;;;;;;;6.08;100.00;100058.63;5065075;28;20028;-77
2021/12/24 08:37:33;;;;;;;4.50;2.17;;;;;;;6.07;100.00;100060.38;5063859;28;20032;-77
2021/12/24 08:39:59;;;;;;;3.55;2.17;;;;;;;6.08;100.00;100069.91;5055834;28;20034;-77
2021/12/24 08:42:25;;;;;;;3.83;2.13;;;;;;;6.04;100.00;100076.41;5077833;28;20113;-78
2021/12/24 08:44:51;;;;;;;3.58;2.13;;;;;;;6.01;100.00;100071.44;5076616;28;20036;-77
2021/12/24 08:47:16;;;;;;;2.95;1.92;;;;;;;6.00;100.00;100077.66;5045407;28;20083;-77
2021/12/24 08:49:42;;;;;;;3.50;2.05;;;;;;;5.94;100.00;100067.69;5061565;28;20061;-77
2021/12/24 08:52:09;;;;;;;4.55;2.60;;;;;;;5.83;100.00;100059.97;5064111;28;20051;-79
2021/12/24 08:54:34;;;;;;;5.78;2.50;;;;;;;5.92;100.00;100091.41;5079971;28;20089;-78
2021/12/24 08:57:00;;;;;;;4.35;2.40;;;;;;;5.72;100.00;100056.53;5067048;28;20040;-77
2021/12/24 08:59:25;;;;;;;6.75;2.55;;;;;;;5.57;100.00;100055.28;5063071;28;20021;-78
2021/12/24 09:01:54;;;;;;;4.53;2.42;;;;;;;5.59;100.00;100079.53;5063945;28;20024;-79
2021/12/24 09:04:20;;;;;;;3.90;2.80;;;;;;;5.65;100.00;100088.66;5063245;28;20074;-77
2021/12/24 09:06:46;;;;;;;5.78;2.92;;;;;;;5.72;100.00;100090.56;5076779;28;20078;-77
2021/12/24 09:09:11;;;;;;;5.60;3.17;;;;;;;5.72;100.00;100094.97;5060631;28;20093;-77
2021/12/24 09:11:40;;;;;;;8.18;3.15;;;;;;;5.69;100.00;100084.78;5058792;28;20032;-77
2021/12/24 09:14:06;;;;;;;5.70;2.92;;;;;;;5.70;100.00;100082.00;5073254;28;20111;-79
2021/12/24 09:16:35;;;;;;;6.90;3.72;;;;;;;5.72;100.00;100087.94;5075546;28;20821;-77
2021/12/24 09:19:06;;;;;;;5.50;3.33;;;;;;;5.70;100.00;100075.97;5076591;28;20151;-78
2021/12/24 09:21:33;;;;;;;5.15;2.95;;;;;;;5.73;100.00;100097.47;5077830;28;20484;-78
2021/12/24 09:23:59;;;;;;;6.15;3.17;;;;;;;5.70;100.00;100100.34;5077746;28;20483;-78
2021/12/24 09:26:29;;;;;;;6.22;3.22;;;;;;;5.51;100.00;100080.22;5077213;28;20020;-78
2021/12/24 09:28:56;;;;;;;6.78;3.90;;;;;;;5.55;100.00;100091.25;5067296;28;20196;-78
2021/12/24 09:31:23;;;;;;;4.45;2.83;;;;;;;5.59;100.00;100112.75;5065201;28;20032;-78
2021/12/24 09:33:49;;;;;;;8.50;3.05;;;;;;;5.53;100.00;100101.88;5075162;28;24277;-79
2021/12/24 09:36:20;;;;;;;7.18;3.25;;;;;;;5.46;100.00;100100.72;5068819;28;20031;-78
2021/12/24 09:38:46;;;;;;;6.43;3.72;;;;;;;5.53;100.00;100132.41;5045971;28;20056;-78
2021/12/24 09:41:11;;;;;;;6.30;3.35;;;;;;;5.39;100.00;100115.31;5058669;28;20124;-77
2021/12/24 09:43:36;;;;;;;5.47;3.45;;;;;;;5.52;100.00;100141.25;5053182;28;20074;-78
2021/12/24 09:46:02;;;;;;;4.80;2.97;;;;;;;5.51;100.00;100144.84;5075466;28;20523;-78
2021/12/24 09:48:27;;;;;;;6.13;3.65;;;;;;;5.48;100.00;100137.25;5060453;28;20032;-77
2021/12/24 09:50:53;;;;;;;4.97;2.95;;;;;;;5.53;100.00;100142.91;5078874;28;20051;-78
2021/12/24 09:53:18;;;;;;;5.55;2.78;;;;;;;5.47;100.00;100138.22;5064358;28;20047;-77
2021/12/24 09:55:43;;;;;;;4.85;2.50;;;;;;;5.51;100.00;100145.66;5051580;28;20042;-77
2021/12/24 09:58:09;;;;;;;5.40;2.75;;;;;;;5.36;100.00;100132.13;5075685;28;20396;-77
2021/12/24 10:00:35;;;;;;;4.38;2.40;;;;;;;5.45;100.00;100140.97;5042505;28;20097;-77
2021/12/24 10:03:00;;;;;;;226.35;21.08;;;;;;;5.50;100.00;100153.63;5068951;28;20028;-77
2021/12/24 10:05:25;;;;;;;3.72;2.67;;;;;;;5.49;100.00;100158.06;5064000;28;20570;-78
2021/12/24 10:07:51;;;;;;;5.70;3.30;;;;;;;5.40;100.00;100143.16;5080946;28;20541;-77
2021/12/24 10:10:29;;;;;;;3.80;2.30;;;;;;;5.40;100.00;100156.25;5085282;28;20040;-78
2021/12/24 10:12:58;;;;;;;3.45;2.47;;;;;;;5.41;100.00;100160.50;5079135;28;20036;-78
2021/12/24 10:15:23;;;;;;;4.70;2.83;;;;;;;5.43;100.00;100168.22;5081323;28;20027;-78
2021/12/24 10:17:49;;;;;;;4.72;2.30;;;;;;;5.36;100.00;100163.53;5064395;28;20040;-79
2021/12/24 10:20:17;;;;;;;3.55;2.40;;;;;;;5.48;100.00;100181.75;5064155;28;20115;-77
2021/12/24 10:22:52;;;;;;;4.80;2.88;;;;;;;5.46;100.00;100183.66;5080038;28;20043;-78
2021/12/24 10:25:24;;;;;;;5.82;2.70;;;;;;;5.33;100.00;100169.03;5080361;28;20579;-78
2021/12/24 10:27:50;;;;;;;4.80;2.40;;;;;;;5.36;100.00;100170.56;5078109;28;20032;-78
2021/12/24 10:30:18;;;;;;;5.00;2.25;;;;;;;5.42;100.00;100190.13;5068887;28;20479;-78
2021/12/24 10:32:44;;;;;;;5.50;3.03;;;;;;;5.40;100.00;100192.88;5066847;28;20035;-78
2021/12/24 10:35:25;;;;;;;5.40;2.53;;;;;;;5.40;100.00;100199.88;5065350;28;20028;-79
2021/12/24 10:38:10;;;;;;;5.13;3.28;;;;;;;5.38;100.00;100196.56;5081291;28;20028;-78
2021/12/24 10:40:36;;;;;;;3.70;2.03;;;;;;;5.28;100.00;100191.31;5076390;28;20154;-77
2021/12/24 10:43:02;;;;;;;3.80;2.25;;;;;;;5.32;100.00;100204.00;5078083;28;20036;-77
2021/12/24 10:45:28;;;;;;;6.43;2.78;;;;;;;5.42;100.00;100211.06;5081566;28;20047;-78
2021/12/24 10:47:53;;;;;;;3.63;2.40;;;;;;;5.40;100.00;100207.72;5066197;28;20045;-78
2021/12/24 10:50:32;;;;;;;3.42;2.40;;;;;;;5.36;100.00;100210.63;5058903;28;20044;-77
2021/12/24 10:53:16;;;;;;;2.60;2.00;;;;;;;5.40;100.00;100212.97;5078609;28;20059;-77
2021/12/24 10:55:49;;;;;;;4.53;2.17;;;;;;;5.31;100.00;100210.22;5079866;28;20032;-79
2021/12/24 10:58:20;;;;;;;2.63;1.77;;;;;;;5.18;100.00;100186.03;5078887;28;20020;-78
2021/12/24 11:00:53;;;;;;;3.15;2.03;;;;;;;5.09;100.00;100179.78;5077373;28;20028;-78
2021/12/24 11:03:28;;;;;;;2.72;1.90;;;;;;;5.24;100.00;100195.16;5080846;28;20051;-78
2021/12/24 11:06:08;;;;;;;3.83;2.28;;;;;;;5.24;100.00;100184.69;5080204;28;20029;-78
2021/12/24 11:08:34;;;;;;;2.58;1.88;;;;;;;5.32;100.00;100197.94;5074340;28;20039;-77
2021/12/24 11:11:03;;;;;;;2.50;1.70;;;;;;;5.36;100.00;100202.78;5068381;28;20161;-77
2021/12/24 11:13:41;;;;;;;3.80;2.10;;;;;;;5.26;100.00;100186.19;5081509;28;20460;-77
2021/12/24 11:16:09;;;;;;;2.97;1.85;;;;;;;5.30;100.00;100200.69;5061561;28;20035;-77
2021/12/24 11:18:39;;;;;;;3.28;1.85;;;;;;;5.29;100.00;100183.34;5057342;28;20051;-78
2021/12/24 11:21:11;;;;;;;3.75;2.10;;;;;;;5.46;100.00;100207.22;5069763;28;20421;-78
2021/12/24 11:23:39;;;;;;;2.88;1.67;;;;;;;5.54;100.00;100210.00;5065163;28;20119;-78
2021/12/24 11:26:10;;;;;;;3.92;1.90;;;;;;;5.58;100.00;100208.78;5076150;28;20039;-77
2021/12/24 11:28:36;;;;;;;;;;;;;;;5.62;100.00;100215.41;5072459;28;20033;-77
2021/12/24 11:31:08;;;;;;;4.20;1.95;;;;;;;5.68;100.00;100220.13;5073196;28;20333;-77
2021/12/24 11:33:36;;;;;;;3.53;2.00;;;;;;;5.58;100.00;100203.53;5074768;28;20031;-78
2021/12/24 11:36:05;;;;;;;3.17;2.03;;;;;;;5.62;100.00;100215.41;5079481;28;20518;-77
2021/12/24 11:38:33;;;;;;;2.90;1.80;;;;;;;5.64;100.00;100215.25;5082400;28;20031;-77
2021/12/24 11:41:01;;;;;;;2.92;2.00;;;;;;;5.73;100.00;100228.38;5076401;28;20027;-77
2021/12/24 11:43:30;;;;;;;2.85;1.98;;;;;;;5.65;100.00;100220.38;5076241;28;20050;-77
2021/12/24 11:46:01;;;;;;;5.07;2.67;;;;;;;5.74;100.00;100229.22;5076169;28;20473;-77
2021/12/24 11:48:31;;;;;;;4.60;1.77;;;;;;;5.72;100.00;100226.72;5061821;28;20040;-78
2021/12/24 11:50:58;;;;;;;3.15;1.83;;;;;;;5.70;100.00;100239.09;5066222;28;20124;-78
2021/12/24 11:53:25;;;;;;;3.05;1.70;;;;;;;5.68;100.00;100230.59;5070567;28;20361;-77
2021/12/24 11:55:51;;;;;;;2.63;1.42;;;;;;;5.76;100.00;100241.19;5079215;28;20024;-77
2021/12/24 11:58:25;;;;;;;4.38;2.25;;;;;;;5.76;100.00;100249.06;5080815;28;20043;-77
2021/12/24 12:00:53;;;;;;;4.43;2.13;;;;;;;5.73;100.00;100244.09;5076785;28;20404;-77
2021/12/24 12:03:38;;;;;;;11.32;4.97;;;;;;;5.75;100.00;100249.22;5078992;28;20584;-77
2021/12/24 12:06:17;;;;;;;6.97;2.90;;;;;;;5.77;100.00;100248.09;5078214;28;20078;-77
2021/12/24 12:08:43;;;;;;;4.40;2.38;;;;;;;5.83;100.00;100243.28;5076103;28;20039;-78
2021/12/24 12:11:30;;;;;;;2.42;1.67;;;;;;;5.75;100.00;100221.22;5082843;28;20032;-77
2021/12/24 12:14:07;;;;;;;3.15;1.63;;;;;;;5.93;100.00;100246.75;5066805;28;20031;-77
2021/12/24 12:16:39;;;;;;;3.65;2.03;;;;;;;5.98;100.00;100242.78;5061752;28;20122;-77
2021/12/24 12:22:46;;;;;;;2.95;2.03;;;;;;;6.05;100.00;100245.69;5077483;28;20041;-77
2021/12/24 12:25:30;;;;;;;4.35;2.28;;;;;;;6.00;100.00;100245.28;5070635;28;20036;-77
2021/12/24 12:27:58;;;;;;;2.85;2.15;;;;;;;6.10;100.00;100248.75;5086524;28;20397;-78
2021/12/24 12:30:46;;;;;;;3.40;1.95;;;;;;;6.11;100.00;100257.44;5077596;28;20032;-77
2021/12/24 12:33:14;;;;;;;2.75;2.08;;;;;;;6.14;100.00;100250.16;5077840;28;20028;-77
2021/12/24 12:35:46;;;;;;;4.05;2.13;;;;;;;6.09;100.00;100234.00;5070105;28;20494;-76
2021/12/24 12:38:44;;;;;;;3.70;1.88;;;;;;;6.18;100.00;100254.16;5067203;28;20025;-77
2021/12/24 12:41:21;;;;;;;2.92;1.80;;;;;;;6.02;100.00;100211.94;5063112;28;20131;-76
2021/12/24 12:43:49;;;;;;;2.58;2.00;;;;;;;6.24;100.00;100241.47;5060006;28;20550;-76
2021/12/24 12:46:26;;;;;;;3.28;1.90;;;;;;;6.30;100.00;100246.16;5062798;28;20286;-78
2021/12/24 12:48:54;;;;;;;4.32;2.25;;;;;;;6.25;100.00;100236.09;5081460;28;20024;-77
2021/12/24 12:51:41;;;;;;;2.78;1.73;;;;;;;6.39;100.00;100247.94;5044157;28;20040;-77
2021/12/24 12:54:48;;;;;;;3.33;2.10;;;;;;;6.50;100.00;100258.28;5075514;28;20063;-77
2021/12/24 12:57:24;;;;;;;3.22;1.88;;;;;;;6.37;100.00;100236.78;5075732;28;20021;-78
2021/12/24 13:00:07;;;;;;;4.45;2.35;;;;;;;6.54;100.00;100259.69;5078306;28;20028;-76
2021/12/24 13:03:07;;;;;;;3.28;2.25;;;;;;;6.51;100.00;100262.59;5062562;28;20064;-76
2021/12/24 13:06:00;;;;;;;3.05;2.22;;;;;;;6.35;100.00;100234.28;5078420;28;20268;-77
2021/12/24 13:08:28;;;;;;;3.58;1.88;;;;;;;6.53;100.00;100258.03;5079089;28;20415;-77
2021/12/24 13:11:06;;;;;;;3.72;2.17;;;;;;;6.53;100.00;100252.78;5076226;28;20145;-77
2021/12/24 13:13:41;;;;;;;3.45;2.42;;;;;;;6.57;100.00;100251.53;5080505;28;20036;-77
2021/12/24 13:16:16;;;;;;;4.55;2.53;;;;;;;6.50;100.00;100245.19;5080146;28;20530;-77